Skip Navigation Links Skip Navigation Links

Current Weather

Dodge County, Juneau, Wis.

For information only: do not use for flight planning or navigation.
Latest weather
Observation time Sunday, May 31, 2020 6:55 AM CDT
Local time Sunday, May 31, 2020 7:04 AM CDT
Flight conditions Visual Meteorological Conditions
Winds
Wind speed calm
Visibility 10 mi.
Sky condition
Ceiling unlimited
Sky clear
Temperature 45°F
Dewpoint 36°F
Altimeter 30.37 in.Hg
Derived measurements
Relative humidity 72%
Wind chill 45°F
Density altitude -395 ft.
Climate data
Remarks
Fully automated report.
Automated weather observing station with precipitation discriminator.
METAR KUNU 311155Z AUTO 00000KT 10SM CLR 07/03 A3037 RMK AO2 T00730025 10073 20045

Settings

Location code

InnerDrive.Weather 4.0.6770.0 Release CLR 4.0.30319.42000
Copyright ©2018 Inner Drive Technology. All rights reserved. Portions Copyright ©1986-2018 David Braverman.

Find weather

Site navigation


Skip Navigation Links

Place info

Page info

PayPal - The safer, easier way to pay online!

Return home.

Copyright ©2020 Inner Drive Technology. Purveyors of fine, hand-crafted computer software. Page printed 2020-05-31T12:04:21 UTC.